Airfield :
LOGIN :

Register | Disclaimer

   EN    FR    IT 

 










Legend :    VFR   Marginal VFR   IFR   Intensive IFR   Very Intensive IFR
Visi :
Ceiling :
>= 8 km
>= 3000ft
5 to 8 km
1000 to 3000 ft
1500m to 5 km
500 to 1000 ft
800 to 1500m
200 to 500 ft
< 800m
< 200 ft
Symbols :   Thunderstorms  Fog  Heavy snow  Heavy precipitations  Wind > 20 kt
SIGMETs :     Misc.  Thunderstorms  Icing  Turbulence  Mountain Waves  Volcanic Ashes







- Airport Elevation : 256 ft
- IATA code : CFR
- Download approach charts


LFRK - Caen

CURRENT METAR :
  • 190500Z AUTO 23008KT 8000 FEW003 05/04 Q1020

EXPIRED METARs :
  • 190430Z AUTO 23008KT 7000 BKN003 05/05 Q1021
  • 190400Z AUTO 23007KT 7000 OVC003 05/05 Q1020
  • 190330Z AUTO 23007KT 7000 OVC003 05/05 Q1020
  • 190300Z AUTO 24007KT 5000 BR BKN003 05/05 Q1020
  • 190230Z AUTO 24006KT 7000 NSC 05/04 Q1020

Expired Forecast.
Met : +33 2 31 26 68 11
No reported NOTAMs for that airfield.
2 SIGMETs reported for the Brest FIR (LFRR) :
 
Severe turbulence
LFRR SIGMET 2 VALID 190410/190800 LFPW
LFRR BREST FIR/UIR SEV TURB FCST WI N4630 W00130 - N4730 W00145 - N4830 W00015 - N4730 W00015 - N4630 W00130 FL180/280 MOV SE 10KT NC=
Severe turbulence
LFRR SIGMET 1 VALID 190400/190800 LFPW
LFRR BREST FIR/UIR SEV TURB FCST WI N4345 W00230 - N4415 W00500 - N4730 W00145 - N4630 W00145 - N4345 W00230 FL180/300 MOV SE 5KT NC=



MET'MAP, your aeronautical weather chart ! - Copyright ORBIFLY December 2007 - Disclaimer

ORBIFLY MET'MAP TEAM :

Programming & Development : Alexandra Zaïnal
Concept & Development : Baudouin d'Aumeries
Co-Development & Prog : Marc-Olivier Méhu
Technical & hardware support : Manuel Goepfert

Contact : metmap@orbifly.com




SOURCES & CREDITS :

   NOAA